Chattanooga, TN (37401)

11:54 AM EDT on May 25, 2015 (GMT -0400)
Coolidge Park | | Change Station
CLOSE
Current Station
Personal Weather Station
Location: Chattanooga, TN
Elevation: 673 ft
Nearby Weather Stations

Elev 673 ft 35.06 °N, 85.31 °W | Updated 13 seconds ago

Overcast
Overcast
73.0 °F
Feels Like 75 °F
N
3.4
Wind Variable Wind from ESE
Gusts 4.9 mph

Today
High -- | Low -- °F
--% Chance of Precip.
Yesterday
High -- | Low -- °F
Precip. -- in
6:31 AM 8:45 PM
Waxing Crescent, 49% visible
Pressure 30.25 in
Visibility 10.0 miles
Clouds Scattered Clouds 2500 ft
Mostly Cloudy 3400 ft
Overcast 6500 ft
Heat Index 75 °F
Dew Point 62 °F
Humidity 68%
Rainfall 0.00 in
Snow Depth Not available.
UV 2.0 out of 12
Pollen 5.20 out of 12
Air Quality Not available.
Flu Activity Sporadic
SPECI KCHA 251505Z 15008G19KT 120V190 10SM SCT025 BKN034 OVC065 24/17 A3025 RMK AO2 T02440172

More Conditions Fewer Conditions

Pressure 30.25 in
Visibility 10.0 miles
Clouds Scattered Clouds 2500 ft
Mostly Cloudy 3400 ft
Overcast 6500 ft
Heat Index 75 °F
Dew Point 62 °F
Humidity 68%
Rainfall 0.00 in
Snow Depth Not available.
UV 2.0 out of 12
Pollen 5.20 out of 12
Air Quality Not available.
Flu Activity Sporadic
SPECI KCHA 251505Z 15008G19KT 120V190 10SM SCT025 BKN034 OVC065 24/17 A3025 RMK AO2 T02440172

More Conditions Fewer Conditions

10-Day Weather Forecast

Almanac

Astronomy

May. 25, 2015 Rise Set
Actual Time
Civil Twilight
Nautical Twilight
Astronomical Twilight
Moon
Length of Visible Light
Length of Day
Tomorrow will be .
, % of the Moon is Illuminated

Today's Extremes

State Highs State Lows

Community

WunderPhotos

Upload Photos

1,824,028 photos uploaded!

WunderBlogs® & News

Nearby

Air Quality

  Air Quality AQ Index Pollutant
Not available.

Snow Depth

Station Depth Elevation

Earthquake Activity

City Distance Mag. Time & Date
Minimum magnitude displayed is 2.5.

Coastal Water Temperatures

Place Temperature

Stations

Nearby Weather Stations

Station Location Temp. Windchill Dew Point Humidity Wind Precip. Elev Updated Type